createdAt,value
2023-01-17T00:01:54.273Z,3.60
2023-01-17T00:04:44.588Z,3.56
2023-01-17T00:07:35.161Z,3.54
2023-01-17T00:10:07.383Z,3.49
2023-01-17T00:12:39.678Z,3.44
2023-01-17T00:15:11.192Z,3.42
2023-01-17T00:17:42.985Z,3.38
2023-01-17T00:20:33.394Z,3.37
2023-01-17T00:23:23.884Z,3.33
2023-01-17T00:26:04.520Z,3.33
2023-01-17T00:28:36.388Z,3.28
2023-01-17T00:31:07.958Z,3.24
2023-01-17T00:33:39.916Z,3.20
2023-01-17T00:36:11.381Z,3.18
2023-01-17T00:38:42.866Z,3.12
2023-01-17T00:41:14.429Z,3.09
2023-01-17T00:44:05.214Z,3.04
2023-01-17T00:46:55.371Z,2.97
2023-01-17T00:49:46.364Z,2.92
2023-01-17T00:52:37.030Z,2.92
2023-01-17T00:55:27.235Z,2.89
2023-01-17T00:58:18.048Z,2.86
2023-01-17T01:01:08.390Z,2.84
2023-01-17T01:03:59.051Z,2.81
2023-01-17T01:06:49.088Z,2.82
2023-01-17T01:09:39.685Z,2.86
2023-01-17T01:12:30.111Z,2.86
2023-01-17T01:15:20.201Z,2.90
2023-01-17T01:18:10.725Z,2.97
2023-01-17T01:21:01.295Z,3.01
2023-01-17T01:23:51.820Z,3.03
2023-01-17T01:26:42.379Z,3.04
2023-01-17T01:29:32.934Z,3.03
2023-01-17T01:32:23.423Z,3.02
2023-01-17T01:34:54.949Z,3.08
2023-01-17T01:37:26.957Z,3.10
2023-01-17T01:39:58.458Z,3.12
2023-01-17T01:42:30.069Z,3.12
2023-01-17T01:45:01.564Z,3.13
2023-01-17T01:47:33.426Z,3.13
2023-01-17T01:50:04.930Z,3.18
2023-01-17T01:52:36.826Z,3.20
2023-01-17T01:55:08.828Z,3.27
2023-01-17T01:57:40.774Z,3.28
2023-01-17T02:00:14.609Z,3.30
2023-01-17T02:02:46.428Z,3.31
2023-01-17T02:05:17.939Z,3.33
2023-01-17T02:07:50.046Z,3.36
2023-01-17T02:10:21.591Z,3.33
2023-01-17T02:12:53.458Z,3.35
2023-01-17T02:15:24.982Z,3.33
2023-01-17T02:17:57.023Z,3.33
2023-01-17T02:20:28.542Z,3.31
2023-01-17T02:23:00.097Z,3.30
2023-01-17T02:25:31.647Z,3.27
2023-01-17T02:28:04.549Z,3.23
2023-01-17T02:30:36.076Z,3.21
2023-01-17T02:33:08.052Z,3.23
2023-01-17T02:35:39.675Z,3.32
2023-01-17T02:38:11.493Z,3.37
2023-01-17T02:40:43.039Z,3.41
2023-01-17T02:43:15.003Z,3.45
2023-01-17T02:45:46.605Z,3.53
2023-01-17T02:48:18.437Z,3.53
2023-01-17T02:50:49.981Z,3.55
2023-01-17T02:53:21.861Z,3.57
2023-01-17T02:55:53.410Z,3.62
2023-01-17T02:58:25.234Z,3.65
2023-01-17T03:00:56.865Z,3.66
2023-01-17T03:03:28.418Z,3.70
2023-01-17T03:06:00.010Z,3.67
2023-01-17T03:08:31.803Z,3.70
2023-01-17T03:11:03.324Z,3.75
2023-01-17T03:13:35.210Z,3.73
2023-01-17T03:16:06.788Z,3.72
2023-01-17T03:18:38.653Z,3.78
2023-01-17T03:21:10.231Z,3.80
2023-01-17T03:23:42.179Z,3.86
2023-01-17T03:26:13.693Z,3.86
2023-01-17T03:28:45.566Z,3.87
2023-01-17T03:31:17.091Z,3.92
2023-01-17T03:33:48.736Z,3.94
2023-01-17T03:36:20.439Z,3.94
2023-01-17T03:38:52.266Z,3.93
2023-01-17T03:41:23.806Z,3.96
2023-01-17T03:43:55.669Z,3.94
2023-01-17T03:46:27.793Z,3.98
2023-01-17T03:48:59.327Z,4.01
2023-01-17T03:51:30.866Z,3.99
2023-01-17T03:54:02.410Z,3.98
2023-01-17T03:56:33.942Z,4.07
2023-01-17T03:59:05.466Z,3.98
2023-01-17T04:01:37.123Z,4.03
2023-01-17T04:04:09.118Z,4.02
2023-01-17T04:06:40.599Z,4.08
2023-01-17T04:09:12.392Z,4.06
2023-01-17T04:11:43.912Z,4.06
2023-01-17T04:14:15.702Z,4.10
2023-01-17T04:16:47.301Z,4.14
2023-01-17T04:19:19.178Z,4.08
2023-01-17T04:21:50.790Z,4.11
2023-01-17T04:24:22.674Z,4.19
2023-01-17T04:26:54.205Z,4.18
2023-01-17T04:29:26.010Z,4.17
2023-01-17T04:31:57.548Z,4.25
2023-01-17T04:34:29.467Z,4.23
2023-01-17T04:37:00.960Z,4.27
2023-01-17T04:39:32.823Z,4.29
2023-01-17T04:42:04.306Z,4.27
2023-01-17T04:44:36.134Z,4.32
2023-01-17T04:47:07.671Z,4.27
2023-01-17T04:49:39.441Z,4.31
2023-01-17T04:52:10.989Z,4.33
2023-01-17T04:54:42.936Z,4.25
2023-01-17T04:57:15.382Z,4.19
2023-01-17T04:59:47.275Z,4.15
2023-01-17T05:02:18.808Z,4.11
2023-01-17T05:04:50.642Z,4.06
2023-01-17T05:07:22.129Z,4.09
2023-01-17T05:09:54.441Z,4.07
2023-01-17T05:12:26.000Z,4.11
2023-01-17T05:14:57.846Z,4.14
2023-01-17T05:17:29.364Z,4.18
2023-01-17T05:20:01.528Z,4.17
2023-01-17T05:22:33.018Z,4.19
2023-01-17T05:25:04.830Z,4.22
2023-01-17T05:27:36.321Z,4.22
2023-01-17T05:30:08.189Z,4.24
2023-01-17T05:32:39.689Z,4.22
2023-01-17T05:35:11.561Z,4.24
2023-01-17T05:37:48.801Z,2.61
2023-01-17T05:40:20.638Z,4.26
2023-01-17T05:42:52.138Z,4.23
2023-01-17T05:45:23.819Z,4.23
2023-01-17T05:47:55.323Z,4.21
2023-01-17T05:50:27.264Z,4.21
2023-01-17T05:52:58.767Z,4.22
2023-01-17T05:55:30.619Z,4.14
2023-01-17T05:58:02.141Z,4.08
2023-01-17T06:00:34.069Z,4.08
2023-01-17T06:03:05.577Z,4.11
2023-01-17T06:05:37.498Z,4.10
2023-01-17T06:08:09.096Z,4.03
2023-01-17T06:10:40.998Z,3.99
2023-01-17T06:13:12.636Z,4.02
2023-01-17T06:15:44.961Z,4.00
2023-01-17T06:18:16.480Z,3.99
2023-01-17T06:20:48.539Z,4.01
2023-01-17T06:23:20.044Z,3.97
2023-01-17T06:25:52.097Z,3.99
2023-01-17T06:28:23.680Z,3.97
2023-01-17T06:30:55.520Z,3.96
2023-01-17T06:33:27.082Z,4.01
2023-01-17T06:35:59.151Z,4.02
2023-01-17T06:38:30.648Z,4.02
2023-01-17T06:41:02.453Z,4.02
2023-01-17T06:43:34.904Z,4.00
2023-01-17T06:46:06.863Z,3.97
2023-01-17T06:48:38.389Z,4.00
2023-01-17T06:51:10.184Z,4.05
2023-01-17T06:53:41.727Z,4.03
2023-01-17T06:56:13.602Z,4.02
2023-01-17T06:58:45.184Z,4.03
2023-01-17T07:01:17.078Z,3.97
2023-01-17T07:03:48.908Z,3.99
2023-01-17T07:06:20.866Z,3.97
2023-01-17T07:08:52.412Z,3.95
2023-01-17T07:11:24.455Z,3.94
2023-01-17T07:13:55.948Z,3.95
2023-01-17T07:16:27.723Z,3.98
2023-01-17T07:18:59.267Z,3.99
2023-01-17T07:21:31.076Z,3.96
2023-01-17T07:24:02.584Z,3.89
2023-01-17T07:26:34.917Z,3.95
2023-01-17T07:29:06.443Z,3.89
2023-01-17T07:31:40.807Z,3.97
2023-01-17T07:34:12.323Z,3.89
2023-01-17T07:36:44.161Z,3.90
2023-01-17T07:39:15.736Z,3.83
2023-01-17T07:41:47.933Z,3.79
2023-01-17T07:44:19.767Z,3.84
2023-01-17T07:46:51.510Z,3.90
2023-01-17T07:49:23.481Z,3.93
2023-01-17T07:51:55.498Z,3.96
2023-01-17T07:54:27.413Z,3.99
2023-01-17T07:56:58.948Z,4.13
2023-01-17T07:59:30.954Z,4.18
2023-01-17T08:02:02.662Z,4.21
2023-01-17T08:04:35.729Z,4.21
2023-01-17T08:07:07.221Z,4.22
2023-01-17T08:09:39.014Z,4.18
2023-01-17T08:12:13.252Z,4.29
2023-01-17T08:14:45.308Z,4.46
2023-01-17T08:20:27.679Z,4.33
2023-01-17T08:22:59.544Z,4.37
2023-01-17T08:25:33.320Z,4.46
2023-01-17T08:28:05.014Z,4.61
2023-01-17T08:30:36.884Z,4.56
2023-01-17T08:33:08.426Z,4.62
2023-01-17T08:35:41.457Z,4.54
2023-01-17T08:38:13.190Z,4.50
2023-01-17T08:40:45.233Z,4.43
2023-01-17T08:43:16.788Z,4.50
2023-01-17T08:45:48.975Z,4.72
2023-01-17T08:48:20.503Z,4.67
2023-01-17T08:50:52.276Z,4.61
2023-01-17T08:53:23.912Z,4.68
2023-01-17T08:55:55.737Z,4.59
2023-01-17T08:58:27.896Z,4.53
2023-01-17T09:01:01.601Z,4.70
2023-01-17T09:03:33.844Z,4.65
2023-01-17T09:06:05.748Z,4.85
2023-01-17T09:08:37.332Z,4.87
2023-01-17T09:11:09.153Z,4.79
2023-01-17T09:13:40.649Z,4.55
2023-01-17T09:16:15.352Z,4.67
2023-01-17T09:18:46.934Z,4.76
2023-01-17T09:21:19.105Z,4.67
2023-01-17T09:23:50.621Z,4.55
2023-01-17T09:26:22.494Z,4.59
2023-01-17T09:28:54.010Z,4.67
2023-01-17T09:31:27.390Z,4.70
2023-01-17T09:33:59.103Z,4.97
2023-01-17T09:36:32.156Z,4.91
2023-01-17T09:39:04.017Z,4.79
2023-01-17T09:41:35.835Z,4.75
2023-01-17T09:44:07.320Z,4.91
2023-01-17T09:46:39.306Z,4.66
2023-01-17T09:49:13.001Z,4.58
2023-01-17T09:51:45.257Z,4.63
2023-01-17T09:54:16.780Z,4.50
2023-01-17T09:56:49.269Z,4.31
2023-01-17T09:59:20.857Z,4.48
2023-01-17T10:01:52.752Z,4.59
2023-01-17T10:04:24.472Z,4.62
2023-01-17T10:06:56.390Z,4.77
2023-01-17T10:09:27.946Z,4.66
2023-01-17T10:12:00.118Z,4.46
2023-01-17T10:14:31.685Z,4.39
2023-01-17T10:17:03.657Z,4.50
2023-01-17T10:19:35.166Z,4.48
2023-01-17T10:22:07.959Z,4.33
2023-01-17T10:24:39.503Z,4.45
2023-01-17T10:27:11.350Z,4.38
2023-01-17T10:29:42.838Z,4.27
2023-01-17T10:32:14.714Z,4.50
2023-01-17T10:34:46.236Z,4.36
2023-01-17T10:37:18.086Z,4.11
2023-01-17T10:39:49.697Z,4.25
2023-01-17T10:42:21.513Z,4.35
2023-01-17T10:44:53.144Z,4.35
2023-01-17T10:47:25.110Z,4.28
2023-01-17T10:49:58.383Z,4.26
2023-01-17T10:52:30.262Z,4.25
2023-01-17T10:55:05.205Z,4.32
2023-01-17T10:57:37.083Z,4.28
2023-01-17T11:00:08.615Z,4.15
2023-01-17T11:02:43.438Z,4.13
2023-01-17T11:05:14.963Z,4.28
2023-01-17T11:07:48.721Z,4.12
2023-01-17T11:10:20.311Z,4.36
2023-01-17T11:12:52.124Z,4.47
2023-01-17T11:15:25.939Z,4.42
2023-01-17T11:17:57.893Z,4.54
2023-01-17T11:20:29.472Z,4.49
2023-01-17T11:23:02.545Z,4.23
2023-01-17T11:25:34.286Z,4.19
2023-01-17T11:28:06.352Z,3.73
2023-01-17T11:30:37.844Z,3.38
2023-01-17T11:33:09.719Z,3.33
2023-01-17T11:35:41.238Z,3.56
2023-01-17T11:38:13.126Z,3.54
2023-01-17T11:40:44.659Z,3.62
2023-01-17T11:43:18.855Z,3.52
2023-01-17T11:45:50.472Z,3.43
2023-01-17T11:48:23.308Z,3.58
2023-01-17T11:50:55.199Z,3.88
2023-01-17T11:53:27.037Z,3.79
2023-01-17T11:55:58.590Z,3.62
2023-01-17T11:58:30.498Z,3.69
2023-01-17T12:01:02.479Z,3.88
2023-01-17T12:03:34.029Z,3.92
2023-01-17T12:06:06.123Z,4.13
2023-01-17T12:08:37.662Z,4.36
2023-01-17T12:11:09.389Z,4.64
2023-01-17T12:13:59.405Z,4.63
2023-01-17T12:16:31.426Z,4.49
2023-01-17T12:19:02.925Z,4.62
2023-01-17T12:21:34.960Z,4.46
2023-01-17T12:24:06.457Z,4.57
2023-01-17T12:26:38.268Z,4.29
2023-01-17T12:29:09.772Z,4.57
2023-01-17T12:31:41.703Z,4.61
2023-01-17T12:34:13.901Z,4.52
2023-01-17T12:36:47.356Z,4.57
2023-01-17T12:39:19.916Z,5.42
2023-01-17T12:41:52.164Z,5.33
2023-01-17T12:44:23.648Z,5.54
2023-01-17T12:46:55.679Z,5.47
2023-01-17T12:49:27.169Z,4.97
2023-01-17T12:51:59.036Z,4.91
2023-01-17T12:54:30.553Z,4.95
2023-01-17T12:57:02.485Z,5.06
2023-01-17T12:59:34.009Z,4.54
2023-01-17T13:02:05.960Z,4.44
2023-01-17T13:04:46.873Z,4.50
2023-01-17T13:07:29.264Z,4.66
2023-01-17T13:10:00.786Z,4.54
2023-01-17T13:12:32.815Z,4.72
2023-01-17T13:15:07.120Z,4.54
2023-01-17T13:17:38.996Z,5.29
2023-01-17T13:20:10.504Z,5.32
2023-01-17T13:22:42.345Z,5.57
2023-01-17T13:25:13.858Z,6.16
2023-01-17T13:27:46.906Z,6.54
2023-01-17T13:30:18.511Z,5.97
2023-01-17T13:32:50.504Z,5.62
2023-01-17T13:35:22.459Z,5.31
2023-01-17T13:37:54.426Z,5.03
2023-01-17T13:40:28.030Z,4.61
2023-01-17T13:43:01.352Z,4.63
2023-01-17T13:45:32.992Z,4.63
2023-01-17T13:48:04.861Z,4.60
2023-01-17T13:50:36.344Z,4.54
2023-01-17T13:53:08.291Z,4.61
2023-01-17T13:55:39.797Z,4.82
2023-01-17T13:58:11.595Z,4.70
2023-01-17T14:00:43.138Z,4.67
2023-01-17T14:03:15.411Z,4.54
2023-01-17T14:05:49.215Z,4.42
2023-01-17T14:08:22.312Z,4.36
2023-01-17T14:10:54.043Z,4.37
2023-01-17T14:13:25.879Z,4.41
2023-01-17T14:15:57.357Z,4.51
2023-01-17T14:18:29.816Z,4.42
2023-01-17T14:21:01.363Z,4.30
2023-01-17T14:23:33.238Z,4.35
2023-01-17T14:26:04.824Z,4.74
2023-01-17T14:28:36.690Z,5.00
2023-01-17T14:31:08.196Z,4.85
2023-01-17T14:33:39.931Z,5.09
2023-01-17T14:36:13.417Z,5.14
2023-01-17T14:38:46.406Z,4.91
2023-01-17T14:41:17.892Z,4.76
2023-01-17T14:43:49.429Z,4.66
2023-01-17T14:46:20.946Z,4.68
2023-01-17T14:48:52.875Z,4.57
2023-01-17T14:51:25.004Z,4.70
2023-01-17T14:53:57.105Z,4.68
2023-01-17T14:56:28.611Z,4.70
2023-01-17T14:59:00.403Z,4.74
2023-01-17T15:01:32.084Z,4.85
2023-01-17T15:04:05.434Z,4.81
2023-01-17T15:06:38.096Z,4.82
2023-01-17T15:09:09.879Z,4.43
2023-01-17T15:11:41.380Z,4.36
2023-01-17T15:14:13.410Z,4.03
2023-01-17T15:16:44.949Z,3.89
2023-01-17T15:19:16.803Z,3.82
2023-01-17T15:21:50.316Z,3.74
2023-01-17T15:24:22.128Z,3.60
2023-01-17T15:26:54.612Z,3.48
2023-01-17T15:29:26.581Z,3.44
2023-01-17T15:32:01.247Z,3.38
2023-01-17T15:34:33.078Z,3.34
2023-01-17T15:37:04.597Z,3.29
2023-01-17T15:39:36.356Z,3.23
2023-01-17T15:42:07.917Z,3.20
2023-01-17T15:44:47.944Z,3.12
2023-01-17T15:47:20.272Z,3.05
2023-01-17T15:49:54.532Z,3.02
2023-01-17T15:52:26.168Z,3.01
2023-01-17T15:54:59.061Z,2.96
2023-01-17T15:57:31.038Z,2.93
2023-01-17T16:00:04.964Z,2.88
2023-01-17T16:02:37.253Z,2.82
2023-01-17T16:05:08.879Z,2.76
2023-01-17T16:07:40.735Z,2.72
2023-01-17T16:10:12.271Z,2.70
2023-01-17T16:12:44.127Z,2.68
2023-01-17T16:15:18.191Z,2.64
2023-01-17T16:17:50.782Z,2.59
2023-01-17T16:20:22.471Z,2.57
2023-01-17T16:22:54.277Z,2.52
2023-01-17T16:25:28.953Z,2.49
2023-01-17T16:28:00.794Z,2.52
2023-01-17T16:30:32.361Z,2.43
2023-01-17T16:33:04.354Z,2.38
2023-01-17T16:35:36.837Z,2.31
2023-01-17T16:38:08.778Z,2.27
2023-01-17T16:40:40.292Z,2.18
2023-01-17T16:43:12.487Z,2.10
2023-01-17T16:45:44.017Z,2.01
2023-01-17T16:48:18.291Z,1.95
2023-01-17T16:50:52.226Z,1.89
2023-01-17T16:53:24.800Z,1.81
2023-01-17T16:55:56.765Z,1.74
2023-01-17T16:58:28.611Z,1.68
2023-01-17T17:01:00.370Z,1.63
2023-01-17T17:03:32.239Z,1.59
2023-01-17T17:06:04.081Z,1.52
2023-01-17T17:08:35.895Z,1.44
2023-01-17T17:11:07.410Z,1.40
2023-01-17T17:13:39.244Z,1.32
2023-01-17T17:16:11.252Z,1.33
2023-01-17T17:18:43.086Z,1.24
2023-01-17T17:21:14.746Z,1.19
2023-01-17T17:23:46.740Z,1.22
2023-01-17T17:26:18.553Z,1.21
2023-01-17T17:28:50.518Z,1.18
2023-01-17T17:31:22.124Z,1.15
2023-01-17T17:33:54.015Z,1.11
2023-01-17T17:36:25.523Z,1.13
2023-01-17T17:38:57.430Z,1.06
2023-01-17T17:41:28.939Z,1.02
2023-01-17T17:44:00.841Z,1.03
2023-01-17T17:46:33.693Z,1.01
2023-01-17T17:49:07.115Z,0.97
2023-01-17T17:51:38.643Z,0.88
2023-01-17T17:54:10.459Z,0.85
2023-01-17T17:56:46.406Z,0.85
2023-01-17T17:59:21.397Z,0.86
2023-01-17T18:01:52.974Z,0.83
2023-01-17T18:04:24.518Z,0.83
2023-01-17T18:06:56.215Z,0.81
2023-01-17T18:09:28.367Z,0.82
2023-01-17T18:12:00.028Z,0.81
2023-01-17T18:14:31.990Z,0.76
2023-01-17T18:17:03.536Z,0.76
2023-01-17T18:19:35.398Z,0.74
2023-01-17T18:22:06.915Z,0.71
2023-01-17T18:24:38.725Z,0.65
2023-01-17T18:27:10.519Z,0.59
2023-01-17T18:29:42.156Z,0.61
2023-01-17T18:32:13.660Z,0.56
2023-01-17T18:34:45.822Z,0.55
2023-01-17T18:37:17.304Z,0.51
2023-01-17T18:39:49.049Z,0.47
2023-01-17T18:42:22.478Z,0.47
2023-01-17T18:44:54.981Z,0.47
2023-01-17T18:47:26.466Z,0.47
2023-01-17T18:49:58.105Z,0.45
2023-01-17T18:52:29.576Z,0.41
2023-01-17T18:55:01.346Z,0.35
2023-01-17T18:57:32.854Z,0.30
2023-01-17T19:00:04.711Z,0.26
2023-01-17T19:02:36.367Z,0.25
2023-01-17T19:05:09.792Z,0.27
2023-01-17T19:07:41.276Z,0.26
2023-01-17T19:10:13.148Z,0.20
2023-01-17T19:12:45.465Z,0.14
2023-01-17T19:15:17.318Z,0.10
2023-01-17T19:17:48.811Z,0.07
2023-01-17T19:20:20.749Z,0.07
2023-01-17T19:22:52.612Z,0.07
2023-01-17T19:25:26.006Z,0.05
2023-01-17T19:27:58.108Z,0.06
2023-01-17T19:30:30.043Z,0.03
2023-01-17T19:33:04.457Z,0.01
2023-01-17T19:35:37.780Z,-0.04
2023-01-17T19:38:09.280Z,-0.14
2023-01-17T19:40:41.297Z,-0.19
2023-01-17T19:43:12.862Z,-0.19
2023-01-17T19:45:44.749Z,-0.19
2023-01-17T19:48:16.828Z,-0.23
2023-01-17T19:50:48.999Z,-0.27
2023-01-17T19:53:20.496Z,-0.28
2023-01-17T19:55:52.356Z,-0.31
2023-01-17T19:58:23.874Z,-0.35
2023-01-17T20:00:55.723Z,-0.43
2023-01-17T20:03:27.277Z,-0.45
2023-01-17T20:05:59.160Z,-0.49
2023-01-17T20:08:30.711Z,-0.51
2023-01-17T20:11:02.767Z,-0.53
2023-01-17T20:13:34.332Z,-0.51
2023-01-17T20:16:06.294Z,-0.54
2023-01-17T20:18:37.898Z,-0.57
2023-01-17T20:21:09.801Z,-0.58
2023-01-17T20:23:44.345Z,-0.59
2023-01-17T20:26:16.093Z,-0.60
2023-01-17T20:28:47.995Z,-0.62
2023-01-17T20:31:19.528Z,-0.68
2023-01-17T20:33:51.048Z,-0.71
2023-01-17T20:36:22.589Z,-0.72
2023-01-17T20:38:54.769Z,-0.72
2023-01-17T20:41:26.318Z,-0.75
2023-01-17T20:43:58.186Z,-0.75
2023-01-17T20:46:29.758Z,-0.76
2023-01-17T20:49:01.338Z,-0.77
2023-01-17T20:51:38.359Z,-0.77
2023-01-17T20:54:10.344Z,-0.80
2023-01-17T20:56:41.939Z,-0.86
2023-01-17T20:59:14.729Z,-0.88
2023-01-17T21:01:46.664Z,-0.96
2023-01-17T21:04:25.313Z,-1.01
2023-01-17T21:06:57.493Z,-0.99
2023-01-17T21:09:29.018Z,-0.96
2023-01-17T21:12:01.481Z,-0.94
2023-01-17T21:14:33.095Z,-1.00
2023-01-17T21:17:04.626Z,-1.05
2023-01-17T21:19:36.935Z,-1.09
2023-01-17T21:22:08.414Z,-1.06
2023-01-17T21:24:40.282Z,-0.97
2023-01-17T21:27:12.863Z,-1.04
2023-01-17T21:29:44.680Z,-1.06
2023-01-17T21:32:17.201Z,-1.04
2023-01-17T21:34:49.170Z,-1.05
2023-01-17T21:37:20.760Z,-1.00
2023-01-17T21:39:55.116Z,-1.01
2023-01-17T21:42:26.664Z,-1.06
2023-01-17T21:44:58.658Z,-1.02
2023-01-17T21:47:30.171Z,-1.01
2023-01-17T21:50:02.039Z,-0.99
2023-01-17T21:52:33.686Z,-1.00
2023-01-17T21:55:24.216Z,-0.99
2023-01-17T21:58:14.442Z,-1.10
2023-01-17T22:00:46.169Z,-1.13
2023-01-17T22:03:17.713Z,-1.07
2023-01-17T22:05:49.547Z,-1.09
2023-01-17T22:08:21.141Z,-1.11
2023-01-17T22:10:53.069Z,-1.18
2023-01-17T22:13:25.053Z,-1.17
2023-01-17T22:15:56.963Z,-1.21
2023-01-17T22:18:28.548Z,-1.23
2023-01-17T22:21:00.358Z,-1.26
2023-01-17T22:23:31.892Z,-1.26
2023-01-17T22:26:03.840Z,-1.26
2023-01-17T22:28:35.361Z,-1.23
2023-01-17T22:31:08.981Z,-1.29
2023-01-17T22:33:40.512Z,-1.31
2023-01-17T22:36:14.042Z,-1.33
2023-01-17T22:38:45.594Z,-1.33
2023-01-17T22:41:17.665Z,-1.33
2023-01-17T22:43:49.163Z,-1.33
2023-01-17T22:46:21.045Z,-1.35
2023-01-17T22:48:52.601Z,-1.37
2023-01-17T22:51:24.461Z,-1.38
2023-01-17T22:53:56.019Z,-1.39
2023-01-17T22:56:27.772Z,-1.40
2023-01-17T22:59:00.614Z,-1.41
2023-01-17T23:01:33.048Z,-1.41
2023-01-17T23:04:04.550Z,-1.42
2023-01-17T23:06:36.292Z,-1.43
2023-01-17T23:09:08.261Z,-1.46
2023-01-17T23:11:40.977Z,-1.48
2023-01-17T23:14:12.750Z,-1.51
2023-01-17T23:17:03.585Z,-1.57
2023-01-17T23:19:35.192Z,-1.60
2023-01-17T23:22:16.263Z,-1.60
2023-01-17T23:24:48.138Z,-1.59
2023-01-17T23:27:38.319Z,-1.64
2023-01-17T23:30:11.031Z,-1.62
2023-01-17T23:32:42.519Z,-1.63
2023-01-17T23:35:14.388Z,-1.68
2023-01-17T23:38:04.554Z,-1.74
2023-01-17T23:40:36.382Z,-1.74
2023-01-17T23:43:23.198Z,-1.74
2023-01-17T23:45:54.989Z,-1.78
2023-01-17T23:48:26.468Z,-1.79
2023-01-17T23:50:58.442Z,-1.77
2023-01-17T23:53:29.954Z,-1.75
2023-01-17T23:56:01.925Z,-1.80
2023-01-17T23:58:33.985Z,-1.84
